Time;durP1;ratioP1;P1;durP2;ratioP2;P2;SDS_P1;SDS_P2;PMS_P1;PMS_P2;Temp;Humidity;BMP_temperature;BMP_pressure;BME280_temperature;BME280_humidity;BME280_pressure;Samples;Min_cycle;Max_cycle;Signal;HPM_P1;HPM_P2
2022/12/30 00:00:58;;;;;;;;;;;7.90;99.90;;;;;;5048931;28;19913;-62
2022/12/30 00:03:23;;;;;;;;;;;7.80;99.90;;;;;;5043639;28;20398;-63
2022/12/30 00:05:49;;;;;;;;;;;7.80;99.90;;;;;;5049628;28;19917;-63
2022/12/30 00:10:58;;;;;;;;;;;8.00;99.90;;;;;;5048001;28;20278;-64
2022/12/30 00:33:09;;;;;;;;;;;7.60;99.90;;;;;;5049567;28;19920;-63
2022/12/30 00:35:39;;;;;;;;;;;7.60;99.90;;;;;;5041668;28;20282;-61
2022/12/30 00:38:05;;;;;;;;;;;7.50;99.90;;;;;;5046610;28;19978;-62
2022/12/30 00:40:30;;;;;;;;;;;7.40;99.90;;;;;;5046042;28;19916;-62
2022/12/30 00:43:08;;;;;;;;;;;7.30;99.90;;;;;;5044196;28;20367;-62
2022/12/30 00:45:34;;;;;;;;;;;7.20;99.90;;;;;;5040794;28;20003;-62
2022/12/30 00:48:00;;;;;;;;;;;7.20;99.90;;;;;;5046981;28;19920;-61
2022/12/30 00:56:09;;;;;;;;;;;6.80;99.90;;;;;;5046079;28;19936;-62
2022/12/30 00:58:35;;;;;;;;;;;6.70;99.90;;;;;;5042036;28;19913;-60
2022/12/30 01:01:00;;;;;;;;;;;6.60;99.90;;;;;;5051913;28;19919;-62
2022/12/30 01:03:26;;;;;;;;;;;6.30;99.90;;;;;;5048547;28;19917;-60
2022/12/30 01:05:51;;;;;;;;;;;6.10;99.90;;;;;;5048514;28;19913;-64
2022/12/30 01:08:16;;;;;;;;;;;6.20;99.90;;;;;;5048502;28;20008;-62
2022/12/30 01:10:42;;;;;;;;;;;6.10;99.90;;;;;;5046222;28;19913;-62
2022/12/30 01:13:07;;;;;;;;;;;6.00;99.90;;;;;;5049515;28;19913;-62
2022/12/30 01:15:33;;;;;;;;;;;5.70;99.90;;;;;;5049514;28;19909;-63
2022/12/30 01:17:59;;;;;;;;;;;5.80;99.90;;;;;;5047968;28;19913;-63
2022/12/30 01:20:24;;;;;;;;;;;5.60;99.90;;;;;;5050309;28;19915;-63
2022/12/30 01:22:50;;;;;;;;;;;5.60;99.90;;;;;;5036059;28;19913;-62
2022/12/30 01:25:16;;;;;;;;;;;5.60;99.90;;;;;;5049964;28;19912;-63
2022/12/30 01:27:41;;;;;;;;;;;5.50;99.90;;;;;;5049188;28;19931;-62
2022/12/30 01:30:07;;;;;;;;;;;5.50;99.90;;;;;;5045204;28;19960;-62
2022/12/30 01:32:35;;;;;;;;;;;5.40;99.90;;;;;;5045799;28;19913;-62
2022/12/30 01:35:00;;;;;;;;;;;5.30;99.90;;;;;;5044805;28;19978;-63
2022/12/30 01:37:26;;;;;;;;;;;5.40;99.90;;;;;;5046141;28;20003;-61
2022/12/30 01:39:51;;;;;;;;;;;5.40;99.90;;;;;;5047829;28;19920;-61
2022/12/30 01:42:18;;;;;;;;;;;5.30;99.90;;;;;;5043082;28;19964;-63
2022/12/30 01:45:00;;;;;;;;;;;5.10;99.90;;;;;;5047407;28;19912;-62
2022/12/30 01:47:34;;;;;;;;;;;5.10;99.90;;;;;;5047052;28;20004;-62
2022/12/30 01:50:03;;;;;;;;;;;5.00;99.90;;;;;;5038070;28;19920;-62
2022/12/30 01:52:29;;;;;;;;;;;4.90;99.90;;;;;;5044392;28;19952;-63
2022/12/30 01:55:01;;;;;;;;;;;4.90;99.90;;;;;;5049869;28;19944;-63
2022/12/30 01:57:27;;;;;;;;;;;4.80;99.90;;;;;;5052602;28;19913;-62
2022/12/30 01:59:52;;;;;;;;;;;4.80;99.90;;;;;;5045856;28;19920;-63
2022/12/30 02:02:18;;;;;;;;;;;4.90;99.90;;;;;;5049943;28;19968;-63
2022/12/30 02:04:43;;;;;;;;;;;4.90;99.90;;;;;;5052480;28;19916;-62
2022/12/30 02:07:15;;;;;;;;;;;4.90;99.90;;;;;;5046830;28;19944;-62
2022/12/30 02:09:41;;;;;;;;;;;4.90;99.90;;;;;;5046346;28;19975;-61
2022/12/30 02:12:06;;;;;;;;;;;4.90;99.90;;;;;;5047715;28;20366;-62
2022/12/30 02:14:34;;;;;;;;;;;4.90;99.90;;;;;;5043144;28;20293;-59
2022/12/30 02:17:05;;;;;;;;;;;4.90;99.90;;;;;;5045444;28;19974;-60
2022/12/30 02:19:33;;;;;;;;;;;4.90;99.90;;;;;;5046489;28;19913;-63
2022/12/30 02:22:10;;;;;;;;;;;5.10;99.90;;;;;;5047844;28;20015;-63
2022/12/30 02:24:48;;;;;;;;;;;5.20;99.90;;;;;;5051719;28;19913;-61
2022/12/30 02:27:22;;;;;;;;;;;5.20;99.90;;;;;;5047675;28;19917;-64
2022/12/30 02:30:06;;;;;;;;;;;5.50;99.90;;;;;;5047235;28;20007;-62
2022/12/30 02:32:36;;;;;;;;;;;5.40;99.90;;;;;;5049095;28;19909;-60
2022/12/30 02:35:10;;;;;;;;;;;5.40;99.90;;;;;;5049695;28;19927;-62
2022/12/30 02:37:45;;;;;;;;;;;5.30;99.90;;;;;;5046241;28;20288;-64
2022/12/30 02:46:12;;;;;;;;;;;5.20;99.90;;;;;;5043462;28;19986;-63
2022/12/30 02:48:39;;;;;;;;;;;5.00;99.90;;;;;;5045502;28;19996;-62
2022/12/30 02:53:50;;;;;;;;;;;5.00;99.90;;;;;;5044976;28;19932;-62
2022/12/30 02:56:15;;;;;;;;;;;4.90;99.90;;;;;;5046390;28;20283;-63
2022/12/30 02:58:44;;;;;;;;;;;4.80;99.90;;;;;;5047682;28;19919;-62
2022/12/30 03:04:18;;;;;;;;;;;4.70;99.90;;;;;;5044270;28;19920;-63
2022/12/30 03:07:02;;;;;;;;;;;4.80;99.90;;;;;;5048002;28;19921;-63
2022/12/30 03:11:12;;;;;;;;;;;4.70;99.90;;;;;;5040699;28;19949;-63
2022/12/30 03:12:37;;;;;;;;;;;4.60;99.90;;;;;;5043476;28;20040;-63
2022/12/30 03:15:05;;;;;;;;;;;4.50;99.90;;;;;;5045830;28;20000;-62
2022/12/30 03:17:33;;;;;;;;;;;4.50;99.90;;;;;;5046154;28;19912;-64
2022/12/30 03:20:03;;;;;;;;;;;4.40;99.90;;;;;;5046152;28;19917;-63
2022/12/30 03:28:01;;;;;;;;;;;4.00;99.90;;;;;;5050059;28;20016;-63
2022/12/30 03:30:27;;;;;;;;;;;4.00;99.90;;;;;;5042921;28;19917;-63
2022/12/30 03:32:53;;;;;;;;;;;3.90;99.90;;;;;;5047423;28;19966;-63
2022/12/30 03:35:19;;;;;;;;;;;3.90;99.90;;;;;;5044858;28;19913;-63
2022/12/30 03:37:49;;;;;;;;;;;4.00;99.90;;;;;;5049640;28;19924;-63
2022/12/30 03:40:25;;;;;;;;;;;4.00;99.90;;;;;;5044687;28;20356;-63
2022/12/30 03:42:51;;;;;;;;;;;3.90;99.90;;;;;;5050136;28;19924;-63
2022/12/30 03:45:17;;;;;;;;;;;4.00;99.90;;;;;;5046695;28;19923;-63
2022/12/30 03:47:43;;;;;;;;;;;4.20;99.90;;;;;;5048428;28;19913;-63
2022/12/30 03:50:08;;;;;;;;;;;4.30;99.90;;;;;;5047973;28;20351;-63
2022/12/30 03:52:34;;;;;;;;;;;4.30;99.90;;;;;;5050647;28;20295;-63
2022/12/30 03:54:59;;;;;;;;;;;4.30;99.90;;;;;;5047471;28;19966;-63
2022/12/30 03:57:24;;;;;;;;;;;4.30;99.90;;;;;;5045126;28;19943;-63
2022/12/30 03:59:50;;;;;;;;;;;4.20;99.90;;;;;;5047367;28;19928;-64
2022/12/30 04:02:15;;;;;;;;;;;4.20;99.90;;;;;;5047777;28;19948;-62
2022/12/30 04:04:41;;;;;;;;;;;4.10;99.90;;;;;;5049146;28;19913;-62
2022/12/30 04:07:06;;;;;;;;;;;4.00;99.90;;;;;;5045524;28;20414;-62
2022/12/30 04:09:32;;;;;;;;;;;4.00;99.90;;;;;;5041278;28;19913;-63
2022/12/30 04:11:57;;;;;;;;;;;4.00;99.90;;;;;;5042048;28;19917;-62
2022/12/30 04:14:23;;;;;;;;;;;4.00;99.90;;;;;;5044836;28;19948;-62
2022/12/30 04:16:48;;;;;;;;;;;4.00;99.90;;;;;;5046143;28;20375;-64
2022/12/30 04:19:14;;;;;;;;;;;4.00;99.90;;;;;;5044865;28;20009;-63
2022/12/30 04:21:39;;;;;;;;;;;4.00;99.90;;;;;;5046654;28;20021;-63
2022/12/30 04:24:05;;;;;;;;;;;3.90;99.90;;;;;;5046735;28;19913;-62
2022/12/30 04:26:30;;;;;;;;;;;3.90;99.90;;;;;;5047868;28;19920;-64
2022/12/30 04:28:56;;;;;;;;;;;3.90;99.90;;;;;;5048247;28;19920;-64
2022/12/30 04:31:21;;;;;;;;;;;3.90;99.90;;;;;;5043741;28;19999;-63
2022/12/30 04:33:51;;;;;;;;;;;3.90;99.90;;;;;;5048045;28;19927;-63
2022/12/30 04:36:17;;;;;;;;;;;3.80;99.90;;;;;;5045482;28;20343;-62
2022/12/30 04:38:43;;;;;;;;;;;3.90;99.90;;;;;;5048580;28;19948;-64
2022/12/30 04:41:08;;;;;;;;;;;3.90;99.90;;;;;;5047830;28;20334;-63
2022/12/30 04:43:34;;;;;;;;;;;3.90;99.90;;;;;;5070268;23;19929;-64
2022/12/30 04:45:59;;;;;;;;;;;3.80;99.90;;;;;;5046908;28;19924;-65
2022/12/30 04:48:25;;;;;;;;;;;3.80;99.90;;;;;;5050055;28;20011;-65
2022/12/30 04:50:50;;;;;;;;;;;3.90;99.90;;;;;;5050250;28;19917;-65
2022/12/30 04:53:16;;;;;;;;;;;3.90;99.90;;;;;;5078302;28;19917;-66
2022/12/30 04:55:41;;;;;;;;;;;3.90;99.90;;;;;;5047852;28;19916;-65
2022/12/30 04:58:07;;;;;;;;;;;4.00;99.90;;;;;;5047960;28;19919;-65
2022/12/30 05:00:32;;;;;;;;;;;4.00;99.90;;;;;;5049048;28;19936;-63
2022/12/30 05:02:58;;;;;;;;;;;4.00;99.90;;;;;;5051478;28;19912;-65
2022/12/30 05:05:24;;;;;;;;;;;3.90;99.90;;;;;;5046107;28;19960;-66
2022/12/30 05:07:49;;;;;;;;;;;4.00;99.90;;;;;;5053175;28;19917;-65
2022/12/30 05:10:15;;;;;;;;;;;4.00;99.90;;;;;;5047281;28;20347;-65
2022/12/30 05:12:40;;;;;;;;;;;4.00;99.90;;;;;;5052999;28;19913;-66
2022/12/30 05:15:06;;;;;;;;;;;4.00;99.90;;;;;;5077752;28;19913;-66
2022/12/30 05:17:31;;;;;;;;;;;4.00;99.90;;;;;;5053861;28;20402;-65
2022/12/30 05:19:57;;;;;;;;;;;4.00;99.90;;;;;;5046665;28;19913;-65
2022/12/30 05:22:22;;;;;;;;;;;4.00;99.90;;;;;;5049702;28;19917;-65
2022/12/30 05:27:32;;;;;;;;;;;4.00;99.90;;;;;;5049953;28;19923;-67
2022/12/30 05:29:57;;;;;;;;;;;4.00;99.90;;;;;;5056631;28;19916;-65
2022/12/30 05:32:22;;;;;;;;;;;4.00;99.90;;;;;;5048224;28;19999;-64
2022/12/30 05:34:48;;;;;;;;;;;4.00;99.90;;;;;;5060108;28;20366;-64
2022/12/30 05:37:14;;;;;;;;;;;4.10;99.90;;;;;;5059815;28;19964;-64
2022/12/30 05:39:39;;;;;;;;;;;4.00;99.90;;;;;;5057924;28;20390;-65
2022/12/30 05:42:05;;;;;;;;;;;4.10;99.90;;;;;;5054834;28;20366;-64
2022/12/30 05:44:31;;;;;;;;;;;4.00;99.90;;;;;;5050333;28;20337;-64
2022/12/30 05:46:56;;;;;;;;;;;4.10;99.90;;;;;;5054036;28;19924;-64
2022/12/30 05:49:22;;;;;;;;;;;4.10;99.90;;;;;;5052964;28;19995;-66
2022/12/30 05:51:47;;;;;;;;;;;4.10;99.90;;;;;;5083805;28;19912;-65
2022/12/30 05:54:13;;;;;;;;;;;4.10;99.90;;;;;;5053071;28;19909;-65
2022/12/30 05:56:38;;;;;;;;;;;4.20;99.90;;;;;;5054894;28;19944;-65
2022/12/30 05:59:04;;;;;;;;;;;4.30;99.90;;;;;;5056520;28;19917;-66
2022/12/30 06:01:29;;;;;;;;;;;4.30;99.90;;;;;;5053986;28;20018;-62
2022/12/30 06:03:55;;;;;;;;;;;4.40;99.90;;;;;;5057619;28;19909;-65
2022/12/30 06:06:21;;;;;;;;;;;4.40;99.90;;;;;;5054187;28;19979;-64
2022/12/30 06:08:47;;;;;;;;;;;4.40;99.90;;;;;;5050940;28;19909;-65
2022/12/30 06:11:12;;;;;;;;;;;4.40;99.90;;;;;;5053659;28;19921;-65
2022/12/30 06:13:37;;;;;;;;;;;4.40;99.90;;;;;;5052373;28;19913;-67
2022/12/30 06:16:03;;;;;;;;;;;4.50;99.90;;;;;;5052770;28;20181;-65
2022/12/30 06:18:29;;;;;;;;;;;4.50;99.90;;;;;;5054028;28;19909;-64
2022/12/30 06:20:55;;;;;;;;;;;4.50;99.90;;;;;;5052790;28;19913;-66
2022/12/30 06:23:20;;;;;;;;;;;4.50;99.90;;;;;;5052222;28;20282;-65
2022/12/30 06:25:50;;;;;;;;;;;4.50;99.90;;;;;;5050444;28;19996;-64
2022/12/30 06:28:15;;;;;;;;;;;4.50;99.90;;;;;;5052361;28;20004;-65
2022/12/30 06:30:40;;;;;;;;;;;4.50;99.90;;;;;;5053987;28;19999;-64
2022/12/30 06:33:07;;;;;;;;;;;4.50;99.90;;;;;;5055053;28;19971;-65
2022/12/30 06:35:32;;;;;;;;;;;4.50;99.90;;;;;;5053033;28;20007;-66
2022/12/30 06:37:58;;;;;;;;;;;4.40;99.90;;;;;;5049848;28;20008;-65
2022/12/30 06:40:23;;;;;;;;;;;4.40;99.90;;;;;;5047519;28;19959;-64
2022/12/30 06:42:48;;;;;;;;;;;4.50;99.90;;;;;;5050030;28;19925;-65
2022/12/30 06:45:14;;;;;;;;;;;4.60;99.90;;;;;;5052343;28;19965;-65
2022/12/30 06:47:39;;;;;;;;;;;4.70;99.90;;;;;;5052270;28;19913;-64
2022/12/30 06:50:05;;;;;;;;;;;4.70;99.90;;;;;;5051295;28;19920;-65
2022/12/30 06:52:31;;;;;;;;;;;4.80;99.90;;;;;;5051746;28;19913;-64
2022/12/30 06:54:56;;;;;;;;;;;4.90;99.90;;;;;;5056252;28;19948;-66
2022/12/30 06:57:21;;;;;;;;;;;5.00;99.90;;;;;;5052311;28;20284;-65
2022/12/30 06:59:47;;;;;;;;;;;5.10;99.90;;;;;;5058392;28;20324;-65
2022/12/30 07:02:13;;;;;;;;;;;5.30;99.90;;;;;;5058637;28;19916;-65
2022/12/30 07:04:38;;;;;;;;;;;5.30;99.90;;;;;;5051337;28;19912;-64
2022/12/30 07:07:04;;;;;;;;;;;5.20;99.90;;;;;;5054823;28;19960;-65
2022/12/30 07:09:29;;;;;;;;;;;5.30;99.90;;;;;;5052299;28;19913;-65
2022/12/30 07:11:54;;;;;;;;;;;5.40;99.90;;;;;;5055264;28;19917;-63
2022/12/30 07:14:20;;;;;;;;;;;5.40;99.90;;;;;;5048756;28;19921;-64
2022/12/30 07:16:45;;;;;;;;;;;5.40;99.90;;;;;;5056048;28;19952;-65
2022/12/30 07:19:11;;;;;;;;;;;5.40;99.90;;;;;;5053051;28;19920;-66
2022/12/30 07:21:37;;;;;;;;;;;5.40;99.90;;;;;;5051563;28;20401;-66
2022/12/30 07:24:02;;;;;;;;;;;5.40;99.90;;;;;;5051020;28;20869;-66
2022/12/30 07:26:28;;;;;;;;;;;5.40;99.90;;;;;;5050207;28;19924;-65
2022/12/30 07:28:53;;;;;;;;;;;5.40;99.90;;;;;;5053679;28;20287;-66
2022/12/30 07:31:19;;;;;;;;;;;5.50;99.90;;;;;;5054368;28;19912;-66
2022/12/30 07:33:44;;;;;;;;;;;5.50;99.90;;;;;;5054760;28;19932;-66
2022/12/30 07:36:10;;;;;;;;;;;5.50;99.90;;;;;;5049479;28;19917;-65
2022/12/30 07:38:35;;;;;;;;;;;5.60;99.90;;;;;;5050238;28;19913;-67
2022/12/30 07:41:01;;;;;;;;;;;5.70;99.90;;;;;;5051741;28;19913;-67
2022/12/30 07:43:26;;;;;;;;;;;5.80;99.90;;;;;;5044193;28;19921;-66
2022/12/30 07:45:52;;;;;;;;;;;5.80;99.90;;;;;;5050907;28;19917;-66
2022/12/30 07:48:17;;;;;;;;;;;5.80;99.90;;;;;;5051762;28;19964;-66
2022/12/30 07:50:43;;;;;;;;;;;5.90;99.90;;;;;;5054434;28;19913;-66
2022/12/30 07:53:08;;;;;;;;;;;5.90;99.90;;;;;;5051175;28;20279;-66
2022/12/30 07:55:37;;;;;;;;;;;6.00;99.90;;;;;;5049473;28;19920;-66
2022/12/30 07:58:02;;;;;;;;;;;6.10;99.90;;;;;;5051925;28;19923;-65
2022/12/30 08:00:28;;;;;;;;;;;6.20;99.90;;;;;;5056782;28;19917;-65
2022/12/30 08:02:53;;;;;;;;;;;6.20;99.90;;;;;;5055596;28;20389;-65
2022/12/30 08:05:19;;;;;;;;;;;6.20;99.90;;;;;;5051248;28;19917;-65
2022/12/30 08:07:44;;;;;;;;;;;6.30;99.90;;;;;;5052576;28;20260;-66
2022/12/30 08:10:10;;;;;;;;;;;6.30;99.90;;;;;;5051399;28;19913;-66
2022/12/30 08:12:35;;;;;;;;;;;6.40;99.90;;;;;;5049728;28;20031;-65
2022/12/30 08:15:01;;;;;;;;;;;6.50;99.90;;;;;;5049933;28;19919;-66
2022/12/30 08:17:27;;;;;;;;;;;6.50;99.90;;;;;;5050400;28;19920;-66
2022/12/30 08:19:52;;;;;;;;;;;6.60;99.90;;;;;;5082719;28;19916;-66
2022/12/30 08:22:17;;;;;;;;;;;6.60;99.90;;;;;;5053297;28;19948;-66
2022/12/30 08:24:43;;;;;;;;;;;6.70;99.90;;;;;;5052304;28;19920;-55
2022/12/30 08:27:08;;;;;;;;;;;6.70;99.90;;;;;;5050210;28;20290;-55
2022/12/30 08:29:34;;;;;;;;;;;6.80;99.90;;;;;;5050957;28;19920;-54
2022/12/30 08:31:59;;;;;;;;;;;7.00;99.90;;;;;;5051820;28;19920;-57
2022/12/30 08:34:25;;;;;;;;;;;7.10;99.90;;;;;;5045982;28;20380;-57
2022/12/30 08:36:50;;;;;;;;;;;7.20;99.90;;;;;;5047184;28;19916;-56
2022/12/30 08:39:16;;;;;;;;;;;7.30;99.90;;;;;;5053930;28;20294;-50
2022/12/30 08:41:42;;;;;;;;;;;7.40;99.90;;;;;;5046380;28;19920;-57
2022/12/30 08:44:08;;;;;;;;;;;7.50;99.90;;;;;;5046817;28;19925;-58
2022/12/30 08:46:34;;;;;;;;;;;7.50;99.90;;;;;;5048295;28;19928;-54
2022/12/30 08:49:00;;;;;;;;;;;7.60;99.90;;;;;;5048865;28;19917;-57
2022/12/30 08:51:26;;;;;;;;;;;7.80;99.90;;;;;;5049586;28;19958;-58
2022/12/30 08:53:51;;;;;;;;;;;7.80;99.90;;;;;;5049051;28;20286;-51
2022/12/30 08:56:18;;;;;;;;;;;8.00;99.90;;;;;;5046777;28;20394;-56
2022/12/30 08:58:44;;;;;;;;;;;8.10;99.90;;;;;;5044033;28;19919;-58
2022/12/30 09:01:14;;;;;;;;;;;8.10;99.90;;;;;;5044246;28;19913;-56
2022/12/30 09:03:41;;;;;;;;;;;8.20;99.90;;;;;;5045713;28;19913;-51
2022/12/30 09:06:07;;;;;;;;;;;8.30;99.90;;;;;;5043557;28;19939;-55
2022/12/30 09:08:33;;;;;;;;;;;8.30;99.90;;;;;;5048738;28;19920;-52
2022/12/30 09:11:00;;;;;;;;;;;8.40;99.90;;;;;;5048099;28;19913;-54
2022/12/30 09:13:25;;;;;;;;;;;8.50;99.90;;;;;;5053139;28;20142;-56
2022/12/30 09:15:51;;;;;;;;;;;8.60;99.90;;;;;;5045183;28;19916;-58
2022/12/30 09:18:16;;;;;;;;;;;8.60;99.90;;;;;;5044449;28;19921;-57
2022/12/30 09:20:42;;;;;;;;;;;8.60;99.90;;;;;;5047090;28;19917;-53
2022/12/30 09:23:07;;;;;;;;;;;8.70;99.90;;;;;;5049645;28;19970;-56
2022/12/30 09:25:32;;;;;;;;;;;8.80;99.90;;;;;;5051485;28;19922;-55
2022/12/30 09:27:58;;;;;;;;;;;8.90;99.90;;;;;;5051070;28;19959;-58
2022/12/30 09:30:23;;;;;;;;;;;8.90;99.90;;;;;;5047899;28;19916;-61
2022/12/30 09:32:49;;;;;;;;;;;9.00;99.90;;;;;;5054664;28;19913;-53
2022/12/30 09:35:14;;;;;;;;;;;9.00;99.90;;;;;;5049018;28;19913;-57
2022/12/30 09:37:40;;;;;;;;;;;9.10;99.90;;;;;;5045687;28;19928;-57
2022/12/30 09:40:06;;;;;;;;;;;9.10;99.90;;;;;;5053076;28;20540;-53
2022/12/30 09:45:23;;;;;;;;;;;9.20;99.90;;;;;;5049413;28;19970;-56
2022/12/30 09:47:50;;;;;;;;;;;9.20;99.90;;;;;;5047884;28;19913;-60
2022/12/30 09:50:34;;;;;;;;;;;9.20;99.90;;;;;;5049856;28;20365;-55
2022/12/30 09:53:09;;;;;;;;;;;9.20;99.90;;;;;;5049243;28;19913;-56
2022/12/30 09:55:43;;;;;;;;;;;9.30;99.90;;;;;;5049061;28;19970;-59
2022/12/30 09:58:11;;;;;;;;;;;9.30;99.90;;;;;;5051178;28;20438;-57
2022/12/30 10:00:37;;;;;;;;;;;9.20;99.90;;;;;;5045762;28;20011;-57
2022/12/30 10:03:02;;;;;;;;;;;9.20;99.90;;;;;;5048509;28;19916;-55
2022/12/30 10:05:33;;;;;;;;;;;9.30;99.90;;;;;;5052917;28;19917;-52
2022/12/30 10:08:09;;;;;;;;;;;9.30;99.90;;;;;;5049113;28;20003;-54
2022/12/30 10:10:39;;;;;;;;;;;9.30;99.90;;;;;;5048507;28;19931;-55
2022/12/30 10:13:19;;;;;;;;;;;9.40;99.90;;;;;;5077586;28;19913;-54
2022/12/30 10:15:47;;;;;;;;;;;9.40;99.90;;;;;;5044992;28;19975;-52
2022/12/30 10:18:48;;;;;;;;;;;9.40;99.90;;;;;;5052453;28;19952;-60
2022/12/30 10:21:31;;;;;;;;;;;9.40;99.90;;;;;;5007243;28;20419;-56
2022/12/30 10:24:11;;;;;;;;;;;9.50;99.90;;;;;;5049561;28;19920;-56
2022/12/30 10:26:45;;;;;;;;;;;9.50;99.90;;;;;;5046467;28;19924;-54
2022/12/30 10:29:13;;;;;;;;;;;9.50;99.90;;;;;;5051631;28;20374;-57
2022/12/30 10:31:39;;;;;;;;;;;9.50;99.90;;;;;;5043994;28;19913;-56
2022/12/30 10:34:11;;;;;;;;;;;9.60;99.90;;;;;;5052137;28;20287;-54
2022/12/30 10:36:43;;;;;;;;;;;9.60;99.90;;;;;;5049748;28;19912;-61
2022/12/30 10:39:16;;;;;;;;;;;9.60;99.90;;;;;;5050765;28;19955;-58
2022/12/30 10:42:04;;;;;;;;;;;9.60;99.90;;;;;;5050386;28;20379;-54
2022/12/30 10:44:37;;;;;;;;;;;9.50;99.90;;;;;;5065005;22;19982;-59
2022/12/30 10:47:02;;;;;;;;;;;9.50;99.90;;;;;;5043642;28;20061;-59
2022/12/30 10:49:53;;;;;;;;;;;9.60;99.90;;;;;;5041553;28;19913;-59
2022/12/30 10:52:18;;;;;;;;;;;9.60;99.90;;;;;;5041647;28;20378;-58
2022/12/30 10:54:44;;;;;;;;;;;9.60;99.90;;;;;;5049554;28;19919;-60
2022/12/30 10:57:31;;;;;;;;;;;9.70;99.90;;;;;;5045945;28;20345;-60
2022/12/30 10:59:57;;;;;;;;;;;9.70;99.90;;;;;;5043610;28;19921;-60
2022/12/30 11:02:25;;;;;;;;;;;9.70;99.90;;;;;;5050980;28;20422;-60
2022/12/30 11:04:50;;;;;;;;;;;9.60;99.90;;;;;;5058279;28;19927;-60
2022/12/30 11:07:16;;;;;;;;;;;9.70;99.90;;;;;;5041796;28;19921;-61
2022/12/30 11:09:43;;;;;;;;;;;9.70;99.90;;;;;;5048848;28;19920;-60
2022/12/30 11:15:12;;;;;;;;;;;9.70;99.90;;;;;;5045934;28;19947;-60
2022/12/30 11:17:44;;;;;;;;;;;9.70;99.90;;;;;;5052356;28;19949;-61
2022/12/30 11:20:12;;;;;;;;;;;9.70;99.90;;;;;;5043382;28;20470;-60
2022/12/30 11:22:44;;;;;;;;;;;9.80;99.90;;;;;;5046540;28;19920;-59
2022/12/30 11:25:19;;;;;;;;;;;9.80;99.90;;;;;;5042245;28;19915;-60
2022/12/30 11:27:47;;;;;;;;;;;9.80;99.90;;;;;;5043804;28;20964;-59
2022/12/30 11:30:24;;;;;;;;;;;9.80;99.90;;;;;;5039787;28;20358;-60
2022/12/30 11:32:51;;;;;;;;;;;9.80;99.90;;;;;;5042877;28;19959;-60
2022/12/30 11:35:32;;;;;;;;;;;9.80;99.90;;;;;;5039623;28;20668;-59
2022/12/30 11:37:57;;;;;;;;;;;9.80;99.90;;;;;;5042951;28;19920;-60
2022/12/30 11:40:22;;;;;;;;;;;9.80;99.90;;;;;;5037478;28;19923;-60
2022/12/30 11:43:03;;;;;;;;;;;9.80;99.90;;;;;;5041045;28;20359;-60
2022/12/30 11:45:28;;;;;;;;;;;9.80;99.90;;;;;;5042496;28;20059;-60
2022/12/30 11:47:54;;;;;;;;;;;9.80;99.90;;;;;;5042664;28;20355;-59
2022/12/30 11:50:19;;;;;;;;;;;9.80;99.90;;;;;;5039390;28;19921;-61
2022/12/30 11:52:50;;;;;;;;;;;9.80;99.90;;;;;;5044283;28;19928;-60
2022/12/30 11:55:21;;;;;;;;;;;9.80;99.90;;;;;;5043389;28;19913;-59
2022/12/30 11:57:47;;;;;;;;;;;9.80;99.90;;;;;;5041501;28;20163;-57
2022/12/30 12:00:12;;;;;;;;;;;9.80;99.90;;;;;;5036640;28;20753;-59
2022/12/30 12:02:45;;;;;;;;;;;9.80;99.90;;;;;;5037613;28;20401;-59
2022/12/30 12:05:25;;;;;;;;;;;9.80;99.90;;;;;;5039489;28;19955;-60
2022/12/30 12:07:53;;;;;;;;;;;9.70;99.90;;;;;;5035388;28;19916;-58
2022/12/30 12:10:45;;;;;;;;;;;9.80;99.90;;;;;;5055204;28;19917;-60
2022/12/30 12:13:22;;;;;;;;;;;9.70;99.90;;;;;;5017555;28;19917;-60
2022/12/30 12:15:51;;;;;;;;;;;9.70;99.90;;;;;;5044451;28;19917;-61
2022/12/30 12:18:37;;;;;;;;;;;9.70;99.90;;;;;;5046781;28;19920;-62
2022/12/30 12:21:08;;;;;;;;;;;9.70;99.90;;;;;;5042643;28;19913;-60
2022/12/30 12:23:52;;;;;;;;;;;9.80;99.90;;;;;;5049449;28;19916;-60
2022/12/30 12:26:29;;;;;;;;;;;9.70;99.90;;;;;;5040715;28;19921;-61
2022/12/30 12:28:56;;;;;;;;;;;9.80;99.90;;;;;;5043140;28;19917;-60
2022/12/30 12:31:21;;;;;;;;;;;9.80;99.90;;;;;;5045967;28;19924;-61
2022/12/30 12:34:05;;;;;;;;;;;9.80;99.90;;;;;;5048086;28;19909;-61
2022/12/30 12:36:48;;;;;;;;;;;9.80;99.90;;;;;;5054691;28;20002;-59
2022/12/30 12:39:20;;;;;;;;;;;9.80;99.90;;;;;;5046299;28;19927;-61
2022/12/30 12:41:45;;;;;;;;;;;9.80;99.90;;;;;;5054768;28;20009;-58
2022/12/30 12:44:11;;;;;;;;;;;9.80;99.90;;;;;;5045437;28;19952;-59
2022/12/30 12:46:39;;;;;;;;;;;9.80;99.90;;;;;;5045670;28;20009;-61
2022/12/30 12:49:14;;;;;;;;;;;9.80;99.90;;;;;;5044637;28;19919;-61
2022/12/30 12:52:02;;;;;;;;;;;9.80;99.90;;;;;;5048130;28;19916;-61
2022/12/30 12:54:57;;;;;;;;;;;9.70;99.90;;;;;;5042133;28;20355;-60
2022/12/30 12:57:35;;;;;;;;;;;9.70;99.90;;;;;;5052810;28;19966;-60
2022/12/30 13:00:07;;;;;;;;;;;9.80;99.90;;;;;;5040615;28;20000;-60
2022/12/30 13:02:32;;;;;;;;;;;9.70;99.90;;;;;;5049704;28;19935;-61
2022/12/30 13:05:07;;;;;;;;;;;9.70;99.90;;;;;;5039054;28;20291;-60
2022/12/30 13:07:51;;;;;;;;;;;9.80;99.90;;;;;;5045466;28;19924;-61
2022/12/30 13:10:32;;;;;;;;;;;9.80;99.90;;;;;;5046122;28;19917;-60
2022/12/30 13:13:12;;;;;;;;;;;9.80;99.90;;;;;;5048789;28;19917;-61
2022/12/30 13:15:47;;;;;;;;;;;9.80;99.90;;;;;;5046457;28;19923;-60
2022/12/30 13:18:18;;;;;;;;;;;9.70;99.90;;;;;;5037638;28;19913;-60
2022/12/30 13:20:46;;;;;;;;;;;9.80;99.90;;;;;;5047999;28;19940;-60
2022/12/30 13:23:13;;;;;;;;;;;9.70;99.90;;;;;;5047090;28;19912;-60
2022/12/30 13:25:40;;;;;;;;;;;9.70;99.90;;;;;;5049911;28;20544;-58
2022/12/30 13:28:11;;;;;;;;;;;9.70;99.90;;;;;;5050583;28;20424;-60
2022/12/30 13:30:49;;;;;;;;;;;9.60;99.90;;;;;;5044395;28;19917;-61
2022/12/30 13:33:14;;;;;;;;;;;9.50;99.90;;;;;;5047593;28;19913;-61
2022/12/30 13:35:40;;;;;;;;;;;9.60;99.90;;;;;;5037345;28;20439;-60
2022/12/30 13:38:11;;;;;;;;;;;9.50;99.90;;;;;;5042883;28;20350;-60
2022/12/30 13:40:45;;;;;;;;;;;9.40;99.90;;;;;;5045486;28;19947;-59
2022/12/30 13:43:14;;;;;;;;;;;9.40;99.90;;;;;;5043115;28;19923;-58
2022/12/30 13:45:44;;;;;;;;;;;9.30;99.90;;;;;;5047998;28;19960;-58
2022/12/30 13:48:09;;;;;;;;;;;9.30;99.90;;;;;;5043746;28;19924;-59
2022/12/30 13:50:35;;;;;;;;;;;9.20;99.90;;;;;;5049339;28;20178;-60
2022/12/30 13:53:02;;;;;;;;;;;9.20;99.90;;;;;;5044515;28;19963;-58
2022/12/30 13:55:37;;;;;;;;;;;9.10;99.90;;;;;;5045223;28;19919;-58
2022/12/30 13:58:20;;;;;;;;;;;9.00;99.90;;;;;;5044243;28;20410;-59
2022/12/30 14:00:46;;;;;;;;;;;9.00;99.90;;;;;;5059806;28;19916;-58
2022/12/30 14:03:11;;;;;;;;;;;9.00;99.90;;;;;;5060386;28;19923;-58
2022/12/30 14:05:37;;;;;;;;;;;8.90;99.90;;;;;;5054455;28;20434;-60
2022/12/30 14:08:18;;;;;;;;;;;8.90;99.90;;;;;;5045098;28;19923;-60
2022/12/30 14:10:45;;;;;;;;;;;8.80;99.90;;;;;;5049631;28;19976;-60
2022/12/30 14:13:25;;;;;;;;;;;8.80;99.90;;;;;;5050495;28;19927;-60
2022/12/30 14:15:58;;;;;;;;;;;8.80;99.90;;;;;;5043282;28;21180;-60
2022/12/30 14:18:29;;;;;;;;;;;8.70;99.90;;;;;;5044892;28;21452;-60
2022/12/30 14:20:57;;;;;;;;;;;8.70;99.90;;;;;;5055966;28;19913;-60
2022/12/30 14:23:41;;;;;;;;;;;8.60;99.90;;;;;;5048959;28;20371;-61
2022/12/30 14:26:26;;;;;;;;;;;8.60;99.90;;;;;;5045773;28;20456;-60
2022/12/30 14:28:56;;;;;;;;;;;8.50;99.90;;;;;;5059858;28;19982;-61
2022/12/30 14:31:24;;;;;;;;;;;8.50;99.90;;;;;;5044205;28;19921;-60
2022/12/30 14:33:50;;;;;;;;;;;8.50;99.90;;;;;;5045739;28;20010;-60
2022/12/30 14:36:16;;;;;;;;;;;8.50;99.90;;;;;;5047730;28;19917;-60
2022/12/30 14:38:44;;;;;;;;;;;8.50;99.90;;;;;;5043607;28;19952;-60
2022/12/30 14:41:13;;;;;;;;;;;8.50;99.90;;;;;;5045543;28;20011;-60
2022/12/30 14:43:57;;;;;;;;;;;8.50;99.90;;;;;;5044576;28;19917;-58
2022/12/30 14:46:40;;;;;;;;;;;8.50;99.90;;;;;;5044575;28;19923;-59
2022/12/30 14:49:15;;;;;;;;;;;8.60;99.90;;;;;;5054323;28;19924;-60
2022/12/30 14:51:42;;;;;;;;;;;8.60;99.90;;;;;;5052862;28;19916;-59
2022/12/30 14:54:11;;;;;;;;;;;8.60;99.90;;;;;;5048782;28;19921;-59
2022/12/30 14:56:37;;;;;;;;;;;8.70;99.90;;;;;;5044431;28;19916;-58
2022/12/30 14:59:05;;;;;;;;;;;8.70;99.90;;;;;;5045961;28;20291;-59
2022/12/30 15:01:31;;;;;;;;;;;8.70;99.90;;;;;;5046452;28;19913;-59
2022/12/30 15:04:13;;;;;;;;;;;8.70;99.90;;;;;;5043235;28;20393;-60
2022/12/30 15:06:40;;;;;;;;;;;8.70;99.90;;;;;;5047709;28;19924;-59
2022/12/30 15:09:07;;;;;;;;;;;8.70;99.90;;;;;;5049828;28;19920;-59
2022/12/30 15:11:32;;;;;;;;;;;8.80;99.90;;;;;;5049444;28;19916;-60
2022/12/30 15:13:59;;;;;;;;;;;8.80;99.90;;;;;;5047235;28;19912;-58
2022/12/30 15:16:26;;;;;;;;;;;8.80;99.90;;;;;;5047828;28;19975;-57
2022/12/30 15:18:58;;;;;;;;;;;8.80;99.90;;;;;;5071035;28;20433;-58
2022/12/30 15:21:25;;;;;;;;;;;8.90;99.90;;;;;;5046439;28;19913;-58
2022/12/30 15:23:56;;;;;;;;;;;8.90;99.90;;;;;;5049921;28;19942;-58
2022/12/30 15:26:22;;;;;;;;;;;9.00;99.90;;;;;;5044905;28;19917;-59
2022/12/30 15:28:47;;;;;;;;;;;9.00;99.90;;;;;;5055617;28;19920;-57
2022/12/30 15:31:17;;;;;;;;;;;9.00;99.90;;;;;;5051205;28;19912;-59
2022/12/30 15:33:54;;;;;;;;;;;9.00;99.90;;;;;;5048212;28;19923;-62